Time;durP1;ratioP1;P1;durP2;ratioP2;P2;SDS_P1;SDS_P2;PMS_P1;PMS_P2;Temp;Humidity;BMP_temperature;BMP_pressure;BME280_temperature;BME280_humidity;BME280_pressure;Samples;Min_cycle;Max_cycle;Signal;HPM_P1;HPM_P2
2024/01/02 09:06:37;;;;;;;;;;;;;;;12.14;100.00;98166.78;4943682;29;20022;-84
2024/01/02 09:09:04;;;;;;;;;;;;;;;12.24;100.00;98150.13;4944516;28;19955;-84
2024/01/02 09:11:30;;;;;;;;;;;;;;;11.90;100.00;98148.19;4952602;29;19926;-85
2024/01/02 09:13:55;;;;;;;;;;;;;;;12.02;100.00;98159.72;4944179;28;20267;-90
2024/01/02 09:16:20;;;;;;;;;;;;;;;12.15;100.00;98159.66;4945977;29;19965;-88
2024/01/02 09:18:45;;;;;;;;;;;;;;;12.21;100.00;98150.38;4958944;28;19919;-88
2024/01/02 09:21:18;;;;;;;;;;;;;;;12.25;100.00;98155.31;4952328;29;19998;-89
2024/01/02 09:23:43;;;;;;;;;;;;;;;12.08;100.00;98151.31;4945299;29;20013;-82
2024/01/02 09:26:23;;;;;;;;;;;;;;;12.18;100.00;98160.25;4946761;28;20017;-94
2024/01/02 09:28:49;;;;;;;;;;;;;;;12.18;100.00;98157.59;4960312;28;20437;-84
2024/01/02 09:31:14;;;;;;;;;;;;;;;11.99;100.00;98154.63;4967899;28;19930;-87
2024/01/02 09:33:42;;;;;;;;;;;;;;;12.14;100.00;98165.91;4950976;28;20297;-82
2024/01/02 09:36:10;;;;;;;;;;;;;;;12.15;100.00;98168.44;4945559;28;19926;-88
2024/01/02 09:38:39;;;;;;;;;;;;;;;11.92;100.00;98159.56;4946746;28;19927;-84
2024/01/02 09:41:23;;;;;;;;;;;;;;;12.07;100.00;98160.22;4946906;28;20279;-85
2024/01/02 09:43:53;;;;;;;;;;;;;;;12.16;100.00;98164.84;4945353;29;19918;-84
2024/01/02 09:46:34;;;;;;;;;;;;;;;11.99;100.00;98159.94;4943736;29;19974;-85
2024/01/02 09:49:18;;;;;;;;;;;;;;;11.76;100.00;98151.03;4943969;28;19937;-86
2024/01/02 09:51:52;;;;;;;;;;;;;;;11.86;100.00;98152.03;4946879;28;20401;-86
2024/01/02 09:54:31;;;;;;;;;;;;;;;11.97;100.00;98149.44;4945022;29;20386;-85
2024/01/02 09:57:15;;;;;;;;;;;;;;;11.80;100.00;98126.78;4959873;28;19926;-85
2024/01/02 10:00:01;;;;;;;;;;;;;;;11.92;100.00;98127.72;4943897;29;19930;-85
2024/01/02 10:02:26;;;;;;;;;;;;;;;13.41;100.00;98135.75;4944804;28;19922;-79
2024/01/02 10:05:03;;;;;;;;;;;;;;;14.08;100.00;98109.88;4945149;29;19945;-87
2024/01/02 10:07:28;;;;;;;;;;;;;;;12.57;100.00;98108.69;4967829;28;20327;-88
2024/01/02 10:09:58;;;;;;;;;;;;;;;12.29;100.00;98110.81;4959411;28;19919;-84
2024/01/02 10:12:29;;;;;;;;;;;;;;;11.94;100.00;98106.38;4945343;28;19925;-88
2024/01/02 10:15:01;;;;;;;;;;;;;;;11.78;100.00;98102.16;4945214;28;20025;-87
2024/01/02 10:17:52;;;;;;;;;;;;;;;12.01;100.00;98091.66;4942755;29;19929;-88
2024/01/02 10:20:24;;;;;;;;;;;;;;;11.97;100.00;98084.91;4945022;28;20380;-83
2024/01/02 10:22:59;;;;;;;;;;;;;;;11.84;100.00;98076.13;4944386;29;19931;-90
2024/01/02 10:25:25;;;;;;;;;;;;;;;12.01;100.00;98078.38;4944381;29;19966;-86
2024/01/02 10:28:10;;;;;;;;;;;;;;;11.90;100.00;98068.56;4943772;29;20441;-89
2024/01/02 10:30:39;;;;;;;;;;;;;;;11.92;100.00;98060.53;4949879;28;20017;-86
2024/01/02 10:33:10;;;;;;;;;;;;;;;12.12;100.00;98054.50;4943410;29;19925;-86
2024/01/02 10:35:47;;;;;;;;;;;;;;;12.69;100.00;98051.94;4944666;29;19919;-89
2024/01/02 10:38:31;;;;;;;;;;;;;;;12.20;100.00;98043.31;4951087;29;19918;-88
2024/01/02 10:41:03;;;;;;;;;;;;;;;11.95;100.00;98047.88;4944717;28;19929;-87
2024/01/02 10:43:30;;;;;;;;;;;;;;;12.19;100.00;98046.94;4944288;29;19947;-90
2024/01/02 10:46:05;;;;;;;;;;;;;;;12.25;100.00;98041.13;4943091;28;19919;-86
2024/01/02 10:48:48;;;;;;;;;;;;;;;12.18;100.00;98038.13;4943536;28;19926;-85
2024/01/02 10:51:22;;;;;;;;;;;;;;;12.07;100.00;98035.44;4966820;28;19926;-88
2024/01/02 10:53:48;;;;;;;;;;;;;;;12.09;100.00;98038.81;4944707;28;19926;-89
2024/01/02 10:56:23;;;;;;;;;;;;;;;12.08;100.00;98042.47;4951368;28;20389;-88
2024/01/02 10:58:57;;;;;;;;;;;;;;;12.14;100.00;98031.38;4944181;29;19962;-88
2024/01/02 11:01:29;;;;;;;;;;;;;;;12.03;100.00;98041.09;4944122;28;20353;-89
2024/01/02 11:04:07;;;;;;;;;;;;;;;11.94;100.00;98032.88;4942559;28;19970;-86
2024/01/02 11:06:40;;;;;;;;;;;;;;;11.79;100.00;98031.34;4944501;28;20021;-86
2024/01/02 11:09:20;;;;;;;;;;;;;;;11.95;100.00;98013.34;4944288;28;20358;-85
2024/01/02 11:11:50;;;;;;;;;;;;;;;12.03;100.00;98018.09;4944803;28;20168;-87
2024/01/02 11:14:18;;;;;;;;;;;;;;;11.98;100.00;98017.56;4943624;28;19923;-88
2024/01/02 11:16:45;;;;;;;;;;;;;;;12.06;100.00;98003.72;4949650;28;19923;-89
2024/01/02 11:19:15;;;;;;;;;;;;;;;12.11;100.00;98004.19;4943336;28;19946;-87
2024/01/02 11:21:41;;;;;;;;;;;;;;;11.98;100.00;97999.84;4946717;28;19927;-88
2024/01/02 11:24:09;;;;;;;;;;;;;;;12.10;100.00;97994.56;4942968;28;20291;-87
2024/01/02 11:26:44;;;;;;;;;;;;;;;12.13;100.00;97992.50;4965929;28;20005;-88
2024/01/02 11:29:18;;;;;;;;;;;;;;;12.09;100.00;97990.19;4944421;28;20162;-88
2024/01/02 11:31:46;;;;;;;;;;;;;;;12.18;100.00;97990.31;4942989;28;19970;-88
2024/01/02 11:34:29;;;;;;;;;;;;;;;12.25;100.00;97989.84;4942904;28;19925;-87
2024/01/02 11:37:13;;;;;;;;;;;;;;;12.22;100.00;97977.69;4966520;28;20031;-88
2024/01/02 11:39:45;;;;;;;;;;;;;;;12.26;100.00;97971.16;4956612;28;19968;-91
2024/01/02 11:42:23;;;;;;;;;;;;;;;12.06;100.00;97963.88;4944400;28;19974;-89
2024/01/02 11:44:57;;;;;;;;;;;;;;;12.16;100.00;97976.34;4944669;28;20366;-90
2024/01/02 11:47:29;;;;;;;;;;;;;;;12.24;100.00;97958.94;4943887;28;19925;-86
2024/01/02 11:50:00;;;;;;;;;;;;;;;11.87;100.00;97951.16;4943558;28;20013;-89
2024/01/02 11:52:27;;;;;;;;;;;;;;;11.98;100.00;97949.44;4966406;28;19926;-91
2024/01/02 11:55:11;;;;;;;;;;;;;;;12.19;100.00;97946.06;4947484;29;19965;-89
2024/01/02 11:57:45;;;;;;;;;;;;;;;12.20;100.00;97947.72;4948521;28;19930;-93
2024/01/02 12:00:13;;;;;;;;;;;;;;;12.21;100.00;97932.66;4946091;29;19927;-91
2024/01/02 12:02:42;;;;;;;;;;;;;;;12.18;100.00;97917.81;4945868;28;19926;-91
2024/01/02 12:05:07;;;;;;;;;;;;;;;12.24;100.00;97917.31;4947090;28;19926;-89
2024/01/02 12:07:35;;;;;;;;;;;;;;;12.27;100.00;97913.56;4947960;29;19925;-89
2024/01/02 12:10:01;;;;;;;;;;;;;;;12.06;100.00;97902.84;4946934;29;19929;-88
2024/01/02 12:12:35;;;;;;;;;;;;;;;12.09;100.00;97905.25;4947408;28;20014;-89
2024/01/02 12:15:07;;;;;;;;;;;;;;;12.19;100.00;97895.63;4947824;28;19926;-90
2024/01/02 12:17:45;;;;;;;;;;;;;;;12.07;100.00;97883.31;4946179;29;19918;-86
2024/01/02 12:20:11;;;;;;;;;;;;;;;12.22;100.00;97887.41;4947407;28;19930;-86
2024/01/02 12:22:36;;;;;;;;;;;;;;;12.22;100.00;97878.56;4945344;29;19942;-87
2024/01/02 12:25:22;;;;;;;;;;;;;;;12.24;100.00;97885.47;4947758;29;19923;-92
2024/01/02 12:27:55;;;;;;;;;;;;;;;12.07;100.00;97881.47;4961355;28;19926;-89
2024/01/02 12:30:22;;;;;;;;;;;;;;;12.15;100.00;97871.09;4946898;28;20016;-86
2024/01/02 12:33:01;;;;;;;;;;;;;;;12.28;100.00;97886.06;4945836;28;20014;-85
2024/01/02 12:35:31;;;;;;;;;;;;;;;12.10;100.00;97875.94;4946496;29;19926;-85
2024/01/02 12:37:59;;;;;;;;;;;;;;;12.16;100.00;97869.31;4947443;28;19925;-85
2024/01/02 12:40:27;;;;;;;;;;;;;;;12.23;100.00;97873.16;4948130;28;19934;-86
2024/01/02 12:42:53;;;;;;;;;;;;;;;12.30;100.00;97878.81;4946868;28;19972;-86
2024/01/02 12:45:22;;;;;;;;;;;;;;;12.32;100.00;97871.56;4947033;28;19950;-85
2024/01/02 12:47:50;;;;;;;;;;;;;;;12.30;100.00;97874.34;4944232;29;19922;-85
2024/01/02 12:50:17;;;;;;;;;;;;;;;12.30;100.00;97870.84;4947991;28;19930;-86
2024/01/02 12:52:48;;;;;;;;;;;;;;;12.23;100.00;97872.31;4946927;28;19922;-89
2024/01/02 12:55:18;;;;;;;;;;;;;;;12.25;100.00;97875.69;4953232;29;19919;-90
2024/01/02 12:57:43;;;;;;;;;;;;;;;12.18;100.00;97873.50;4945944;28;19944;-86
2024/01/02 13:00:11;;;;;;;;;;;;;;;12.22;100.00;97852.03;4946101;29;20370;-87
2024/01/02 13:02:37;;;;;;;;;;;;;;;12.16;100.00;97864.84;4945224;28;19930;-86
2024/01/02 13:05:03;;;;;;;;;;;;;;;12.19;100.00;97855.78;4945190;28;19926;-86
2024/01/02 13:07:30;;;;;;;;;;;;;;;12.28;100.00;97860.34;4945696;29;19973;-86
2024/01/02 13:09:58;;;;;;;;;;;;;;;12.12;100.00;97863.38;4944217;28;19918;-90
2024/01/02 13:12:24;;;;;;;;;;;;;;;12.23;100.00;97851.06;4945542;29;20014;-91
2024/01/02 13:14:49;;;;;;;;;;;;;;;12.15;100.00;97860.47;4945576;29;20005;-86
2024/01/02 13:17:17;;;;;;;;;;;;;;;12.15;100.00;97839.25;4967791;28;19922;-89
2024/01/02 13:19:42;;;;;;;;;;;;;;;12.20;100.00;97840.69;4945656;29;19922;-85
2024/01/02 13:22:08;;;;;;;;;;;;;;;12.24;100.00;97834.16;4945411;29;19918;-86
2024/01/02 13:24:46;;;;;;;;;;;;;;;12.05;100.00;97840.97;4946177;29;19949;-88
2024/01/02 13:27:12;;;;;;;;;;;;;;;12.31;100.00;97822.06;4967691;28;20417;-86
2024/01/02 13:29:37;;;;;;;;;;;;;;;12.13;100.00;97838.53;4960340;28;19923;-84
2024/01/02 13:32:06;;;;;;;;;;;;;;;12.21;100.00;97848.53;4945436;29;19926;-85
2024/01/02 13:34:32;;;;;;;;;;;;;;;12.31;100.00;97820.25;4945438;28;19966;-87
2024/01/02 13:36:57;;;;;;;;;;;;;;;12.33;100.00;97836.06;4945975;28;21126;-84
2024/01/02 13:39:38;;;;;;;;;;;;;;;12.21;100.00;97821.16;4960840;28;20488;-85
2024/01/02 13:42:04;;;;;;;;;;;;;;;12.29;100.00;97821.38;4946660;28;19926;-85
2024/01/02 13:44:36;;;;;;;;;;;;;;;12.28;100.00;97824.97;4946483;29;20411;-85
2024/01/02 13:47:02;;;;;;;;;;;;;;;12.33;100.00;97825.44;4944842;29;19919;-85
2024/01/02 13:49:44;;;;;;;;;;;;;;;12.36;100.00;97817.22;4943892;28;20279;-85
2024/01/02 13:52:10;;;;;;;;;;;;;;;12.39;100.00;97821.47;4945587;28;19966;-85
2024/01/02 13:54:42;;;;;;;;;;;;;;;12.34;100.00;97812.03;4945394;28;19968;-84
2024/01/02 13:57:09;;;;;;;;;;;;;;;13.71;100.00;97807.72;4945905;29;19923;-79
2024/01/02 13:59:34;;;;;;;;;;;;;;;13.04;100.00;97801.03;4967446;28;19930;-85
2024/01/02 14:02:03;;;;;;;;;;;;;;;12.54;100.00;97805.13;4946016;29;19923;-84
2024/01/02 14:04:29;;;;;;;;;;;;;;;12.48;100.00;97808.28;4942328;29;19950;-85
2024/01/02 14:07:01;;;;;;;;;;;;;;;12.43;100.00;97794.53;4944560;28;19926;-86
2024/01/02 14:09:27;;;;;;;;;;;;;;;12.34;100.00;97797.94;4944969;28;19923;-88
2024/01/02 14:12:02;;;;;;;;;;;;;;;12.32;100.00;97794.56;4945031;29;19966;-85
2024/01/02 14:14:34;;;;;;;;;;;;;;;12.30;100.00;97793.81;4945764;28;19962;-87
2024/01/02 14:17:04;;;;;;;;;;;;;;;12.34;100.00;97793.44;4966899;28;19926;-92
2024/01/02 14:19:35;;;;;;;;;;;;;;;12.17;100.00;97789.53;4944306;28;20013;-86
2024/01/02 14:22:17;;;;;;;;;;;;;;;12.13;100.00;97787.25;4945126;29;19974;-84
2024/01/02 14:24:51;;;;;;;;;;;;;;;12.14;100.00;97779.16;4944706;29;19927;-86
2024/01/02 14:27:22;;;;;;;;;;;;;;;11.94;100.00;97770.16;4944670;29;19978;-81
2024/01/02 14:29:56;;;;;;;;;;;;;;;11.81;100.00;97758.81;4945265;28;19922;-84
2024/01/02 14:35:39;;;;;;;;;;;;;;;11.71;100.00;97760.50;4999980;28;19948;-87
2024/01/02 14:38:28;;;;;;;;;;;;;;;11.61;100.00;97760.38;5002435;28;19926;-85
2024/01/02 14:41:09;;;;;;;;;;;;;;;11.45;100.00;97755.44;4993260;28;20012;-88
2024/01/02 14:43:36;;;;;;;;;;;;;;;11.34;100.00;97758.09;5002905;28;19998;-84
2024/01/02 14:46:17;;;;;;;;;;;;;;;11.23;100.00;97741.25;5003008;28;19972;-87
2024/01/02 14:48:42;;;;;;;;;;;;;;;11.00;100.00;97739.53;5001808;28;19925;-91
2024/01/02 14:51:23;;;;;;;;;;;;;;;10.84;100.00;97742.50;5005341;28;19928;-90
2024/01/02 14:54:00;;;;;;;;;;;;;;;10.68;100.00;97729.59;5010449;28;19928;-88
2024/01/02 14:56:42;;;;;;;;;;;;;;;10.61;100.00;97723.91;5003376;28;20072;-84
2024/01/02 14:59:26;;;;;;;;;;;;;;;10.48;100.00;97739.00;5002449;28;19922;-88
2024/01/02 15:02:02;;;;;;;;;;;;;;;10.34;100.00;97725.03;5007310;28;19925;-87
2024/01/02 15:04:40;;;;;;;;;;;;;;;10.34;100.00;97711.78;5006948;28;20303;-87
2024/01/02 15:07:09;;;;;;;;;;;;;;;10.58;100.00;97708.25;5003600;28;19922;-91
2024/01/02 15:10:12;;;;;;;;;;;;;;;10.56;100.00;97715.44;5003616;28;19968;-87
2024/01/02 15:12:44;;;;;;;;;;;;;;;10.31;100.00;97701.38;4970642;28;19969;-84
2024/01/02 15:15:15;;;;;;;;;;;;;;;10.14;100.00;97696.50;4952183;28;19937;-84
2024/01/02 15:17:50;;;;;;;;;;;;;;;10.50;100.00;97710.63;5000628;28;20013;-86
2024/01/02 15:20:20;;;;;;;;;;;;;;;10.21;100.00;97692.47;5018578;28;19957;-86
2024/01/02 15:22:52;;;;;;;;;;;;;;;10.21;100.00;97688.94;5002063;28;19921;-87
2024/01/02 15:25:29;;;;;;;;;;;;;;;10.06;100.00;97685.66;5002153;28;19926;-85
2024/01/02 15:28:05;;;;;;;;;;;;;;;9.84;100.00;97681.09;5019600;28;19972;-88
2024/01/02 15:30:50;;;;;;;;;;;;;;;9.79;100.00;97686.72;5005538;28;20353;-87
2024/01/02 15:33:22;;;;;;;;;;;;;;;9.74;100.00;97680.94;5002829;28;19953;-89
2024/01/02 15:35:53;;;;;;;;;;;;;;;9.75;100.00;97670.25;5018401;28;20385;-88
2024/01/02 15:38:25;;;;;;;;;;;;;;;9.76;100.00;97679.00;5004307;28;20395;-87
2024/01/02 15:40:51;;;;;;;;;;;;;;;9.88;100.00;97672.00;5005230;28;20321;-87
2024/01/02 15:43:20;;;;;;;;;;;;;;;9.96;100.00;97665.16;5005990;28;19980;-87
2024/01/02 15:46:06;;;;;;;;;;;;;;;10.02;100.00;97660.38;5004405;28;19921;-88
2024/01/02 15:48:40;;;;;;;;;;;;;;;10.12;100.00;97664.88;5002027;28;19929;-87
2024/01/02 15:51:19;;;;;;;;;;;;;;;10.15;100.00;97667.28;5005781;28;20328;-88
2024/01/02 15:53:51;;;;;;;;;;;;;;;10.23;100.00;97652.63;5005822;28;19921;-84
2024/01/02 15:56:24;;;;;;;;;;;;;;;10.25;100.00;97656.84;5005438;28;19936;-85
2024/01/02 15:58:49;;;;;;;;;;;;;;;10.35;100.00;97657.03;5004109;28;19918;-91
2024/01/02 16:01:16;;;;;;;;;;;;;;;10.44;100.00;97674.03;5012429;28;19967;-86
2024/01/02 16:03:51;;;;;;;;;;;;;;;10.53;100.00;97668.88;5002328;28;19918;-86
2024/01/02 16:06:19;;;;;;;;;;;;;;;10.61;100.00;97654.19;5020395;28;19929;-87
2024/01/02 16:08:47;;;;;;;;;;;;;;;10.72;100.00;97652.41;5002968;28;19932;-87
2024/01/02 16:11:19;;;;;;;;;;;;;;;10.79;100.00;97650.13;5003271;28;19922;-86
2024/01/02 16:13:59;;;;;;;;;;;;;;;10.83;100.00;97646.28;5018793;28;20739;-90
2024/01/02 16:16:25;;;;;;;;;;;;;;;10.90;100.00;97644.00;5004157;28;19925;-84
2024/01/02 16:19:09;;;;;;;;;;;;;;;11.01;100.00;97629.88;5003619;28;19922;-82
2024/01/02 16:21:41;;;;;;;;;;;;;;;11.10;100.00;97623.88;5003311;28;19972;-85
2024/01/02 16:24:25;;;;;;;;;;;;;;;11.17;100.00;97632.16;5011979;28;19925;-85
2024/01/02 16:27:04;;;;;;;;;;;;;;;11.21;100.00;97625.69;5003956;28;20403;-86
2024/01/02 16:29:29;;;;;;;;;;;;;;;11.26;100.00;97620.84;5019672;28;19983;-86
2024/01/02 16:32:13;;;;;;;;;;;;;;;11.29;100.00;97598.56;5002949;28;19917;-88
2024/01/02 16:34:38;;;;;;;;;;;;;;;11.29;100.00;97606.50;5003490;28;20060;-86
2024/01/02 16:37:06;;;;;;;;;;;;;;;11.37;100.00;97598.78;5008569;28;20005;-82
2024/01/02 16:39:33;;;;;;;;;;;;;;;11.40;100.00;97604.66;5003542;28;19918;-86
2024/01/02 16:42:02;;;;;;;;;;;;;;;11.47;100.00;97614.78;5008533;28;19925;-83
2024/01/02 16:44:27;;;;;;;;;;;;;;;11.48;100.00;97604.06;5004677;28;19933;-89
2024/01/02 16:46:53;;;;;;;;;;;;;;;11.77;100.00;97595.50;5002860;28;20288;-86
2024/01/02 16:49:19;;;;;;;;;;;;;;;10.68;100.00;97598.00;5011672;28;19995;-87
2024/01/02 16:52:04;;;;;;;;;;;;;;;9.77;100.00;97583.69;5002891;28;19930;-86
2024/01/02 16:54:30;;;;;;;;;;;;;;;9.30;100.00;97568.69;5003814;28;19924;-85
2024/01/02 16:56:56;;;;;;;;;;;;;;;9.25;100.00;97564.59;5019087;28;19917;-88
2024/01/02 16:59:23;;;;;;;;;;;;;;;9.03;100.00;97556.50;5003520;28;20008;-87
2024/01/02 17:01:48;;;;;;;;;;;;;;;8.77;100.00;97543.38;5002700;28;19984;-86
2024/01/02 17:04:15;;;;;;;;;;;;;;;8.60;100.00;97543.72;5002936;28;19921;-87
2024/01/02 17:06:41;;;;;;;;;;;;;;;8.56;100.00;97551.03;5003125;28;19932;-85
2024/01/02 17:09:09;;;;;;;;;;;;;;;8.39;100.00;97544.22;5003836;28;19918;-83
2024/01/02 17:11:34;;;;;;;;;;;;;;;8.32;100.00;97537.72;5004238;28;20012;-82
2024/01/02 17:14:06;;;;;;;;;;;;;;;8.25;100.00;97524.09;5003816;28;19996;-90
2024/01/02 17:16:31;;;;;;;;;;;;;;;8.25;100.00;97532.03;5003904;28;20377;-85
2024/01/02 17:18:57;;;;;;;;;;;;;;;8.15;100.00;97531.81;5003341;28;19929;-84
2024/01/02 17:21:27;;;;;;;;;;;;;;;8.07;100.00;97513.00;5004148;28;19918;-84
2024/01/02 17:23:53;;;;;;;;;;;;;;;7.97;100.00;97517.25;5003557;28;20491;-85
2024/01/02 17:26:21;;;;;;;;;;;;;;;7.86;100.00;97519.78;5010503;28;19924;-84
2024/01/02 17:28:48;;;;;;;;;;;;;;;7.89;100.00;97511.66;5010376;28;19921;-84
2024/01/02 17:31:13;;;;;;;;;;;;;;;7.90;100.00;97506.28;5003917;28;19922;-83
2024/01/02 17:33:42;;;;;;;;;;;;;;;7.93;100.00;97505.19;5001816;28;19922;-89
2024/01/02 17:36:08;;;;;;;;;;;;;;;7.87;100.00;97497.75;5003144;28;19918;-86
2024/01/02 17:38:35;;;;;;;;;;;;;;;7.82;100.00;97504.16;5003580;28;19917;-84
2024/01/02 17:41:00;;;;;;;;;;;;;;;7.81;100.00;97515.63;5003017;28;19971;-85
2024/01/02 17:43:26;;;;;;;;;;;;;;;7.78;100.00;97496.56;5003495;28;19918;-85
2024/01/02 17:45:53;;;;;;;;;;;;;;;7.74;100.00;97509.09;5003956;28;19933;-85
2024/01/02 17:48:18;;;;;;;;;;;;;;;7.72;100.00;97512.78;5002300;28;19913;-86
2024/01/02 17:51:10;;;;;;;;;;;;;;;7.67;100.00;97522.78;5002020;28;19924;-84
2024/01/02 17:53:40;;;;;;;;;;;;;;;7.75;100.00;97517.84;5003075;28;20012;-83
2024/01/02 17:56:11;;;;;;;;;;;;;;;7.71;100.00;97508.47;5002949;28;19991;-82
2024/01/02 17:58:56;;;;;;;;;;;;;;;7.81;100.00;97522.72;5002539;28;19961;-85
2024/01/02 18:01:22;;;;;;;;;;;;;;;7.79;100.00;97551.81;5003129;28;19924;-84
2024/01/02 18:03:57;;;;;;;;;;;;;;;7.76;100.00;97514.28;5017302;28;19957;-89
2024/01/02 18:06:37;;;;;;;;;;;;;;;7.72;100.00;97502.25;5003990;28;19929;-84
2024/01/02 18:09:09;;;;;;;;;;;;;;;8.37;100.00;97510.03;5003556;28;20809;-86
2024/01/02 18:11:54;;;;;;;;;;;;;;;7.94;100.00;97530.63;5003953;28;19929;-86
2024/01/02 18:14:32;;;;;;;;;;;;;;;7.73;100.00;97519.75;5002654;28;19924;-86
2024/01/02 18:16:57;;;;;;;;;;;;;;;7.69;100.00;97519.13;5001438;28;20300;-86
2024/01/02 18:19:22;;;;;;;;;;;;;;;7.72;100.00;97534.75;5004259;28;19924;-90
2024/01/02 18:21:53;;;;;;;;;;;;;;;7.58;100.00;97542.72;5002977;28;19918;-86
2024/01/02 18:24:45;;;;;;;;;;;;;;;7.59;100.00;97536.47;5002545;28;19924;-86
2024/01/02 18:27:19;;;;;;;;;;;;;;;7.55;100.00;97538.47;5003715;28;19925;-84
2024/01/02 18:29:44;;;;;;;;;;;;;;;7.58;100.00;97532.19;5018100;28;19922;-85
2024/01/02 18:32:25;;;;;;;;;;;;;;;7.44;100.00;97536.56;5001383;28;20293;-85
2024/01/02 18:35:12;;;;;;;;;;;;;;;7.42;100.00;97525.28;5002785;28;19992;-85
2024/01/02 18:37:42;;;;;;;;;;;;;;;7.36;100.00;97538.84;5003580;28;19921;-88
2024/01/02 18:40:08;;;;;;;;;;;;;;;7.43;100.00;97540.13;5018628;28;19926;-87
2024/01/02 18:42:45;;;;;;;;;;;;;;;7.38;100.00;97525.56;5000883;28;19971;-88
2024/01/02 18:45:14;;;;;;;;;;;;;;;7.41;100.00;97523.56;5017582;28;19922;-87
2024/01/02 18:47:42;;;;;;;;;;;;;;;7.29;100.00;97542.81;5000488;28;20016;-84
2024/01/02 18:50:10;;;;;;;;;;;;;;;7.39;100.00;97536.00;5009396;28;19922;-87
2024/01/02 18:52:55;;;;;;;;;;;;;;;7.35;100.00;97541.59;5002963;28;20281;-85
2024/01/02 18:55:20;;;;;;;;;;;;;;;7.36;100.00;97544.13;5002030;28;20434;-86
2024/01/02 18:57:51;;;;;;;;;;;;;;;7.21;100.00;97540.69;5002114;28;20069;-86
2024/01/02 19:00:16;;;;;;;;;;;;;;;7.33;100.00;97565.38;5008385;28;19922;-87
2024/01/02 19:02:49;;;;;;;;;;;;;;;7.33;100.00;97554.84;5003444;28;19928;-85
2024/01/02 19:05:14;;;;;;;;;;;;;;;7.35;100.00;97558.22;5006578;28;19921;-85
2024/01/02 19:07:40;;;;;;;;;;;;;;;7.30;100.00;97559.47;5005170;28;20178;-84
2024/01/02 19:10:06;;;;;;;;;;;;;;;7.28;100.00;97556.94;5004563;28;19984;-86
2024/01/02 19:12:31;;;;;;;;;;;;;;;7.26;100.00;97569.38;5006419;28;19929;-85
2024/01/02 19:15:00;;;;;;;;;;;;;;;7.22;100.00;97566.06;5012854;28;19922;-84
2024/01/02 19:17:25;;;;;;;;;;;;;;;7.31;100.00;97562.03;5004649;28;19918;-89
2024/01/02 19:19:51;;;;;;;;;;;;;;;7.15;100.00;97571.84;5005098;28;19922;-89
2024/01/02 19:22:18;;;;;;;;;;;;;;;7.07;100.00;97562.66;5006750;28;19964;-86
2024/01/02 19:24:45;;;;;;;;;;;;;;;7.11;100.00;97568.56;5005991;28;19918;-87
2024/01/02 19:27:11;;;;;;;;;;;;;;;7.04;100.00;97554.09;5005610;28;19995;-85
2024/01/02 19:29:36;;;;;;;;;;;;;;;7.12;100.00;97558.88;5006568;28;19918;-85
2024/01/02 19:32:02;;;;;;;;;;;;;;;7.11;100.00;97565.09;5004072;28;19976;-82
2024/01/02 19:34:27;;;;;;;;;;;;;;;7.13;100.00;97571.94;5005648;28;19979;-85
2024/01/02 19:36:53;;;;;;;;;;;;;;;7.13;100.00;97568.47;5005881;28;19929;-86
2024/01/02 19:39:21;;;;;;;;;;;;;;;7.15;100.00;97569.19;5005406;28;20391;-85
2024/01/02 19:41:47;;;;;;;;;;;;;;;7.07;100.00;97570.56;5005408;28;20016;-84
2024/01/02 19:44:12;;;;;;;;;;;;;;;7.20;100.00;97577.69;5005328;28;20374;-85
2024/01/02 19:46:38;;;;;;;;;;;;;;;7.09;100.00;97581.00;5005205;28;19917;-89
2024/01/02 19:49:06;;;;;;;;;;;;;;;7.09;100.00;97575.72;5004392;28;19922;-85
2024/01/02 19:51:33;;;;;;;;;;;;;;;7.02;100.00;97579.66;5005485;28;19948;-85
2024/01/02 19:53:58;;;;;;;;;;;;;;;7.04;100.00;97586.53;5005624;28;19917;-87
2024/01/02 19:56:23;;;;;;;;;;;;;;;7.03;100.00;97578.75;5005361;28;19928;-90
2024/01/02 19:58:49;;;;;;;;;;;;;;;7.08;100.00;97580.16;5007473;28;19924;-87
2024/01/02 20:01:15;;;;;;;;;;;;;;;7.05;100.00;97577.72;5004683;28;19968;-86
2024/01/02 20:03:50;;;;;;;;;;;;;;;7.09;100.00;97584.47;5003579;28;19921;-86
2024/01/02 20:06:34;;;;;;;;;;;;;;;7.00;100.00;97594.72;5005101;28;19968;-85
2024/01/02 20:09:00;;;;;;;;;;;;;;;6.95;100.00;97592.38;5005492;28;19924;-85
2024/01/02 20:11:28;;;;;;;;;;;;;;;6.91;100.00;97596.16;5005507;28;19938;-87
2024/01/02 20:13:54;;;;;;;;;;;;;;;7.04;100.00;97594.44;5004771;28;20004;-88
2024/01/02 20:16:25;;;;;;;;;;;;;;;7.00;100.00;97600.84;5005235;28;20029;-86
2024/01/02 20:18:53;;;;;;;;;;;;;;;6.97;100.00;97601.03;5003529;28;19926;-86
2024/01/02 20:21:23;;;;;;;;;;;;;;;6.97;100.00;97601.03;5004542;28;19921;-86
2024/01/02 20:23:53;;;;;;;;;;;;;;;6.91;100.00;97597.00;5004821;28;19917;-86
2024/01/02 20:26:21;;;;;;;;;;;;;;;6.97;100.00;97602.81;5004841;28;20360;-86
2024/01/02 20:28:56;;;;;;;;;;;;;;;6.87;100.00;97605.19;5004539;28;19925;-87
2024/01/02 20:31:44;;;;;;;;;;;;;;;6.83;100.00;97615.06;5004652;28;19919;-86
2024/01/02 20:34:22;;;;;;;;;;;;;;;6.89;100.00;97608.56;4992797;28;20480;-85
2024/01/02 20:36:47;;;;;;;;;;;;;;;6.94;100.00;97617.03;5004676;28;20446;-91
2024/01/02 20:39:19;;;;;;;;;;;;;;;6.91;100.00;97627.75;5004925;28;19922;-86
2024/01/02 20:41:54;;;;;;;;;;;;;;;6.87;100.00;97618.34;5004193;28;19925;-86
2024/01/02 20:44:21;;;;;;;;;;;;;;;6.86;100.00;97616.66;5004921;28;20323;-85
2024/01/02 20:46:48;;;;;;;;;;;;;;;6.90;100.00;97620.78;5004401;28;19921;-83
2024/01/02 20:49:13;;;;;;;;;;;;;;;6.82;100.00;97628.31;5003421;28;19925;-85
2024/01/02 20:51:40;;;;;;;;;;;;;;;6.83;100.00;97632.63;5004422;28;19917;-86
2024/01/02 20:54:10;;;;;;;;;;;;;;;6.78;100.00;97637.34;5004646;28;20369;-84
2024/01/02 20:56:35;;;;;;;;;;;;;;;6.77;100.00;97625.13;5004070;28;20285;-90
2024/01/02 20:59:00;;;;;;;;;;;;;;;6.69;100.00;97644.88;5002759;28;19917;-86
2024/01/02 21:01:26;;;;;;;;;;;;;;;6.84;100.00;97621.16;5004285;28;19928;-84
2024/01/02 21:04:02;;;;;;;;;;;;;;;6.71;100.00;97624.56;5002943;28;19918;-84
2024/01/02 21:06:37;;;;;;;;;;;;;;;6.74;100.00;97626.16;5003706;28;19927;-85
2024/01/02 21:09:26;;;;;;;;;;;;;;;6.80;100.00;97623.16;5004155;28;19917;-85
2024/01/02 21:11:53;;;;;;;;;;;;;;;6.73;100.00;97630.59;5004304;28;19918;-84
2024/01/02 21:14:19;;;;;;;;;;;;;;;6.71;100.00;97616.66;5004078;28;20450;-85
2024/01/02 21:16:44;;;;;;;;;;;;;;;6.77;100.00;97622.50;5003641;28;20016;-86
2024/01/02 21:19:36;;;;;;;;;;;;;;;6.68;100.00;97631.81;5002451;28;20061;-85
2024/01/02 21:22:04;;;;;;;;;;;;;;;6.67;100.00;97633.59;5001752;28;19922;-87
2024/01/02 21:24:31;;;;;;;;;;;;;;;6.68;100.00;97627.38;5003391;28;20413;-88
2024/01/02 21:26:56;;;;;;;;;;;;;;;6.64;100.00;97625.88;5003612;28;19922;-85
2024/01/02 21:29:21;;;;;;;;;;;;;;;6.61;100.00;97622.59;5003813;28;19925;-85
2024/01/02 21:31:48;;;;;;;;;;;;;;;6.58;100.00;97628.88;5003166;28;19928;-84
2024/01/02 21:34:13;;;;;;;;;;;;;;;6.60;100.00;97627.00;5002723;28;19948;-86
2024/01/02 21:36:39;;;;;;;;;;;;;;;6.58;100.00;97628.88;5003881;28;19929;-86
2024/01/02 21:39:05;;;;;;;;;;;;;;;6.52;100.00;97624.00;5003752;28;19921;-85
2024/01/02 21:41:30;;;;;;;;;;;;;;;6.54;100.00;97630.00;5003640;28;19960;-86
2024/01/02 21:44:05;;;;;;;;;;;;;;;6.54;100.00;97635.25;5003359;28;19922;-87
2024/01/02 21:46:30;;;;;;;;;;;;;;;6.60;100.00;97639.31;5003179;28;19984;-87
2024/01/02 21:49:00;;;;;;;;;;;;;;;6.77;100.00;97641.78;5002037;28;19949;-83
2024/01/02 21:51:26;;;;;;;;;;;;;;;6.71;100.00;97648.25;5003205;28;19924;-86
2024/01/02 21:54:14;;;;;;;;;;;;;;;6.64;100.00;97654.00;5003152;28;20403;-85
2024/01/02 21:56:39;;;;;;;;;;;;;;;6.64;100.00;97649.56;5002925;28;19941;-87
2024/01/02 21:59:20;;;;;;;;;;;;;;;6.65;100.00;97659.16;5003095;28;20289;-86
2024/01/02 22:01:45;;;;;;;;;;;;;;;6.53;100.00;97662.53;5003213;28;20343;-83
2024/01/02 22:04:11;;;;;;;;;;;;;;;6.47;100.00;97650.56;5002110;28;20016;-86
2024/01/02 22:06:37;;;;;;;;;;;;;;;6.57;100.00;97640.34;5003140;28;20269;-85
2024/01/02 22:09:15;;;;;;;;;;;;;;;6.63;100.00;97639.97;5003467;28;19918;-86